Pays
Station

 

Conditions  météo  pour  Caen  -  France    France

  
19 °C
    
 
 

METAR pour Caen :

LFRK 230400Z AUTO 24012KT 8000 OVC009 19/18 Q1013

 

Voici le bulletin pour Caen - France.
 
Le bulletin a été fait il y a 27 minutes, à 04:00 UTC .
Le vent soufflait à la vitesse de 6.2 mètres par seconde de Ouest/Sud-ouest (240°).
 
La température était de 19 °C, avec un point de rosée à 18 °C.
La pression atmosphérique était de 1013 hPa.
L'humidité relative était de 93.9%.
 
Le ciel était nuageux à partir d'une hauteur de 274 mètres
 
La visibilité globale était de 8.0 kilomètres.
 

 
 
 

Pays :   A   B   C   D   E   F   G   H   I   J   K   L   M   N   O   P   Q   R   S   T   U   V   W   Y   Z

 

Partenaires :  Info Météo avec Met'info
Météo Marine avec MeteoMarine.net
Infos Site  |  Infos Légales  |  Crédits  |  Confidentialité
Contactez-nous  |  Ajouter aux favoris
© 2013-2018 METAR - Tous droits réservés